createdAt,value
2018-02-20T00:01:10.822Z,34.97
2018-02-20T00:03:39.137Z,34.22
2018-02-20T00:06:06.545Z,34.13
2018-02-20T00:08:34.000Z,34.35
2018-02-20T00:11:01.404Z,34.40
2018-02-20T00:13:30.354Z,35.28
2018-02-20T00:15:57.833Z,33.90
2018-02-20T00:18:25.261Z,33.45
2018-02-20T00:20:53.440Z,33.65
2018-02-20T00:23:21.622Z,33.50
2018-02-20T00:25:49.805Z,34.97
2018-02-20T00:28:18.013Z,33.80
2018-02-20T00:30:46.235Z,34.20
2018-02-20T00:33:13.655Z,34.08
2018-02-20T00:35:41.847Z,36.10
2018-02-20T00:38:10.040Z,33.90
2018-02-20T00:40:38.238Z,33.90
2018-02-20T00:43:05.675Z,34.60
2018-02-20T00:45:33.081Z,32.88
2018-02-20T00:48:00.563Z,33.35
2018-02-20T00:50:28.020Z,33.45
2018-02-20T00:52:55.434Z,34.22
2018-02-20T00:55:22.860Z,33.65
2018-02-20T00:57:50.277Z,31.20
2018-02-20T01:00:17.798Z,33.28
2018-02-20T01:02:45.288Z,32.85
2018-02-20T01:05:12.688Z,31.62
2018-02-20T01:07:40.122Z,31.55
2018-02-20T01:10:07.566Z,33.20
2018-02-20T01:12:34.982Z,31.85
2018-02-20T01:15:02.491Z,31.48
2018-02-20T01:17:29.922Z,30.05
2018-02-20T01:19:57.329Z,30.05
2018-02-20T01:22:24.754Z,31.05
2018-02-20T01:24:52.165Z,28.67
2018-02-20T01:27:19.650Z,31.40
2018-02-20T01:29:47.087Z,29.87
2018-02-20T01:32:15.257Z,30.08
2018-02-20T01:34:42.687Z,30.37
2018-02-20T01:37:10.090Z,28.42
2018-02-20T01:39:37.516Z,29.67
2018-02-20T01:42:04.913Z,30.02
2018-02-20T01:44:32.434Z,31.12
2018-02-20T01:46:59.902Z,29.67
2018-02-20T01:49:27.328Z,30.20
2018-02-20T01:51:56.250Z,31.12
2018-02-20T01:54:24.496Z,30.08
2018-02-20T01:56:51.918Z,28.80
2018-02-20T01:59:20.238Z,29.85
2018-02-20T02:01:47.670Z,30.25
2018-02-20T02:04:15.091Z,30.65
2018-02-20T02:06:42.527Z,30.42
2018-02-20T02:09:09.938Z,30.33
2018-02-20T02:11:37.354Z,30.40
2018-02-20T02:14:04.772Z,30.15
2018-02-20T02:16:32.206Z,31.77
2018-02-20T02:18:59.668Z,30.80
2018-02-20T02:21:27.082Z,31.17
2018-02-20T02:23:54.494Z,30.75
2018-02-20T02:26:21.921Z,31.80
2018-02-20T02:28:49.332Z,31.92
2018-02-20T02:31:16.781Z,31.95
2018-02-20T02:33:44.972Z,30.83
2018-02-20T02:36:13.148Z,31.27
2018-02-20T02:38:41.415Z,31.10
2018-02-20T02:41:08.813Z,32.10
2018-02-20T02:43:36.994Z,33.53
2018-02-20T02:46:05.175Z,35.22
2018-02-20T02:48:33.341Z,32.33
2018-02-20T02:51:00.749Z,30.92
2018-02-20T02:53:28.183Z,32.50
2018-02-20T02:55:55.606Z,33.05
2018-02-20T02:58:23.026Z,31.85
2018-02-20T03:00:50.450Z,33.08
2018-02-20T03:03:17.906Z,33.10
2018-02-20T03:05:45.379Z,33.65
2018-02-20T03:08:12.796Z,31.65
2018-02-20T03:10:40.304Z,33.78
2018-02-20T03:13:07.717Z,34.70
2018-02-20T03:15:35.133Z,33.30
2018-02-20T03:18:02.548Z,33.72
2018-02-20T03:20:29.975Z,35.83
2018-02-20T03:22:57.464Z,35.50
2018-02-20T03:25:24.939Z,36.10
2018-02-20T03:27:52.361Z,36.10
2018-02-20T03:30:20.562Z,36.95
2018-02-20T03:32:48.009Z,35.28
2018-02-20T03:35:15.434Z,35.75
2018-02-20T03:37:42.842Z,35.88
2018-02-20T03:40:11.028Z,35.67
2018-02-20T03:42:38.521Z,35.28
2018-02-20T03:45:05.996Z,37.13
2018-02-20T03:47:33.414Z,37.55
2018-02-20T03:50:00.823Z,35.92
2018-02-20T03:52:28.247Z,34.45
2018-02-20T03:54:55.654Z,35.83
2018-02-20T03:57:23.836Z,35.20
2018-02-20T03:59:52.065Z,35.75
2018-02-20T04:02:19.473Z,35.83
2018-02-20T04:04:46.925Z,36.78
2018-02-20T04:07:14.329Z,37.22
2018-02-20T04:09:41.814Z,36.60
2018-02-20T04:12:09.217Z,36.22
2018-02-20T04:14:36.639Z,38.00
2018-02-20T04:17:04.114Z,36.35
2018-02-20T04:19:31.541Z,36.90
2018-02-20T04:21:58.945Z,36.90
2018-02-20T04:24:26.418Z,36.10
2018-02-20T04:26:53.830Z,34.70
2018-02-20T04:29:21.241Z,37.45
2018-02-20T04:31:49.417Z,35.80
2018-02-20T04:34:17.613Z,33.78
2018-02-20T04:36:45.914Z,36.22
2018-02-20T04:39:13.382Z,37.65
2018-02-20T04:41:40.808Z,36.30
2018-02-20T04:44:08.206Z,37.10
2018-02-20T04:46:36.377Z,35.47
2018-02-20T04:49:04.553Z,35.88
2018-02-20T04:51:32.785Z,35.05
2018-02-20T04:54:00.206Z,35.67
2018-02-20T04:56:27.619Z,34.33
2018-02-20T04:58:55.031Z,33.10
2018-02-20T05:01:22.442Z,37.97
2018-02-20T05:03:49.867Z,37.47
2018-02-20T05:06:17.291Z,36.03
2018-02-20T05:08:44.776Z,36.00
2018-02-20T05:11:12.239Z,37.50
2018-02-20T05:13:39.642Z,35.10
2018-02-20T05:16:07.074Z,37.45
2018-02-20T05:18:34.527Z,33.15
2018-02-20T05:21:02.003Z,36.95
2018-02-20T05:23:29.424Z,36.10
2018-02-20T05:25:56.835Z,35.35
2018-02-20T05:28:24.258Z,36.05
2018-02-20T05:30:51.666Z,34.55
2018-02-20T05:33:19.153Z,36.03
2018-02-20T05:35:46.583Z,35.80
2018-02-20T05:38:14.787Z,35.47
2018-02-20T05:40:42.261Z,35.15
2018-02-20T05:43:09.689Z,37.00
2018-02-20T05:45:37.200Z,36.90
2018-02-20T05:48:04.612Z,37.08
2018-02-20T05:50:32.880Z,35.97
2018-02-20T05:53:00.270Z,36.05
2018-02-20T05:55:27.712Z,37.15
2018-02-20T05:57:55.187Z,37.20
2018-02-20T06:00:23.329Z,35.65
2018-02-20T06:02:51.523Z,34.92
2018-02-20T06:05:18.978Z,33.67
2018-02-20T06:07:47.171Z,36.03
2018-02-20T06:10:15.410Z,35.50
2018-02-20T06:12:42.810Z,33.90
2018-02-20T06:15:10.986Z,36.33
2018-02-20T06:17:38.407Z,33.58
2018-02-20T06:20:05.810Z,34.75
2018-02-20T06:22:33.284Z,36.25
2018-02-20T06:25:00.710Z,33.97
2018-02-20T06:27:28.123Z,31.17
2018-02-20T06:29:55.546Z,32.97
2018-02-20T06:32:22.950Z,33.63
2018-02-20T06:34:51.194Z,33.85
2018-02-20T06:37:18.609Z,34.45
2018-02-20T06:39:46.137Z,35.63
2018-02-20T06:42:14.324Z,33.53
2018-02-20T06:44:41.758Z,34.58
2018-02-20T06:47:09.943Z,32.85
2018-02-20T06:49:38.121Z,30.48
2018-02-20T06:52:05.529Z,33.90
2018-02-20T06:54:32.948Z,35.45
2018-02-20T06:57:00.574Z,34.78
2018-02-20T06:59:27.962Z,34.88
2018-02-20T07:01:55.399Z,35.75
2018-02-20T07:04:22.867Z,35.00
2018-02-20T07:06:50.350Z,32.17
2018-02-20T07:09:17.765Z,30.70
2018-02-20T07:11:46.699Z,32.55
2018-02-20T07:14:15.003Z,31.37
2018-02-20T07:16:42.398Z,29.52
2018-02-20T07:19:09.841Z,30.40
2018-02-20T07:21:37.226Z,31.73
2018-02-20T07:24:04.671Z,33.35
2018-02-20T07:26:32.076Z,32.70
2018-02-20T07:28:59.487Z,33.05
2018-02-20T07:31:27.671Z,33.50
2018-02-20T07:33:55.845Z,30.45
2018-02-20T07:36:24.026Z,32.55
2018-02-20T07:38:51.535Z,30.73
2018-02-20T07:41:19.734Z,34.10
2018-02-20T07:43:47.160Z,32.90
2018-02-20T07:46:15.377Z,33.38
2018-02-20T07:48:42.774Z,32.75
2018-02-20T07:51:10.195Z,34.17
2018-02-20T07:53:38.385Z,32.03
2018-02-20T07:56:05.881Z,33.25
2018-02-20T07:58:33.437Z,32.42
2018-02-20T08:01:00.910Z,32.15
2018-02-20T08:03:29.073Z,31.35
2018-02-20T08:05:57.266Z,32.75
2018-02-20T08:08:25.465Z,32.33
2018-02-20T08:10:52.932Z,32.80
2018-02-20T08:13:20.309Z,32.33
2018-02-20T08:15:47.726Z,33.67
2018-02-20T08:18:15.146Z,33.50
2018-02-20T08:20:42.606Z,35.60
2018-02-20T08:23:10.013Z,33.65
2018-02-20T08:25:37.444Z,34.85
2018-02-20T08:28:05.012Z,32.92
2018-02-20T08:30:33.200Z,35.95
2018-02-20T08:33:00.614Z,36.33
2018-02-20T08:35:28.041Z,35.50
2018-02-20T08:37:55.466Z,34.65
2018-02-20T08:40:22.893Z,28.80
2018-02-20T08:42:50.287Z,33.13
2018-02-20T08:45:17.710Z,33.88
2018-02-20T08:47:45.171Z,33.38
2018-02-20T08:50:12.576Z,36.47
2018-02-20T08:52:40.002Z,35.25
2018-02-20T08:55:07.458Z,34.75
2018-02-20T08:57:35.769Z,34.97
2018-02-20T09:00:04.056Z,33.70
2018-02-20T09:02:32.216Z,34.00
2018-02-20T09:05:00.382Z,34.17
2018-02-20T09:07:27.797Z,33.92
2018-02-20T09:09:55.222Z,33.10
2018-02-20T09:12:22.731Z,32.08
2018-02-20T09:14:50.149Z,31.42
2018-02-20T09:17:17.558Z,30.48
2018-02-20T09:19:45.799Z,32.10
2018-02-20T09:22:13.325Z,29.73
2018-02-20T09:24:41.512Z,32.53
2018-02-20T09:27:08.930Z,30.25
2018-02-20T09:29:36.446Z,29.25
2018-02-20T09:32:03.855Z,29.73
2018-02-20T09:34:32.793Z,32.10
2018-02-20T09:37:00.985Z,31.80
2018-02-20T09:39:29.290Z,31.75
2018-02-20T09:41:56.716Z,31.80
2018-02-20T09:44:24.242Z,31.42
2018-02-20T09:46:51.704Z,26.55
2018-02-20T09:49:19.117Z,30.52
2018-02-20T09:51:46.550Z,30.52
2018-02-20T09:54:13.998Z,27.60
2018-02-20T09:56:41.413Z,32.15
2018-02-20T09:59:08.834Z,30.90
2018-02-20T10:01:36.257Z,27.67
2018-02-20T10:04:03.661Z,29.58
2018-02-20T10:06:31.090Z,29.23
2018-02-20T10:08:58.505Z,29.83
2018-02-20T10:11:25.926Z,24.87
2018-02-20T10:13:53.347Z,27.80
2018-02-20T10:16:20.792Z,26.60
2018-02-20T10:18:48.170Z,33.47
2018-02-20T10:21:15.668Z,30.60
2018-02-20T10:23:43.085Z,33.38
2018-02-20T10:26:11.274Z,30.58
2018-02-20T10:28:39.457Z,31.17
2018-02-20T10:31:06.874Z,31.87
2018-02-20T10:33:34.431Z,28.85
2018-02-20T10:36:01.937Z,32.70
2018-02-20T10:38:29.366Z,28.60
2018-02-20T10:40:56.839Z,32.60
2018-02-20T10:43:24.267Z,29.77
2018-02-20T10:45:51.681Z,35.90
2018-02-20T10:48:19.146Z,34.28
2018-02-20T10:50:46.541Z,35.65
2018-02-20T10:53:14.102Z,34.35
2018-02-20T10:55:41.519Z,27.42
2018-02-20T10:58:09.731Z,35.95
2018-02-20T11:00:37.176Z,37.25
2018-02-20T11:03:05.365Z,35.55
2018-02-20T11:05:33.546Z,37.67
2018-02-20T11:08:01.754Z,37.85
2018-02-20T11:10:29.339Z,32.42
2018-02-20T11:12:56.755Z,36.58
2018-02-20T11:15:24.192Z,36.63
2018-02-20T11:17:51.609Z,39.22
2018-02-20T11:20:19.810Z,38.20
2018-02-20T11:22:47.262Z,39.63
2018-02-20T11:25:14.698Z,40.53
2018-02-20T11:27:42.181Z,39.45
2018-02-20T11:30:09.606Z,30.45
2018-02-20T11:32:37.034Z,38.10
2018-02-20T11:35:04.462Z,34.90
2018-02-20T11:37:31.882Z,38.20
2018-02-20T11:39:59.301Z,38.30
2018-02-20T11:42:26.719Z,39.13
2018-02-20T11:44:54.133Z,38.77
2018-02-20T11:47:21.612Z,29.97
2018-02-20T11:49:49.778Z,39.93
2018-02-20T11:52:17.211Z,39.93
2018-02-20T11:54:44.840Z,37.87
2018-02-20T11:57:12.410Z,37.60
2018-02-20T11:59:39.827Z,40.30
2018-02-20T12:02:07.346Z,39.90
2018-02-20T12:04:35.517Z,37.73
2018-02-20T12:07:02.990Z,36.67
2018-02-20T12:09:30.693Z,41.73
2018-02-20T12:11:58.152Z,31.73
2018-02-20T12:14:25.573Z,40.30
2018-02-20T12:16:53.816Z,40.00
2018-02-20T12:19:21.242Z,43.17
2018-02-20T12:21:49.557Z,42.10
2018-02-20T12:24:17.017Z,42.57
2018-02-20T12:26:44.457Z,31.27
2018-02-20T12:29:12.639Z,43.00
2018-02-20T12:31:40.077Z,45.13
2018-02-20T12:34:07.521Z,42.67
2018-02-20T12:36:34.946Z,44.70
2018-02-20T12:39:03.144Z,41.27
2018-02-20T12:41:31.461Z,42.77
2018-02-20T12:43:58.869Z,41.77
2018-02-20T12:46:26.282Z,41.50
2018-02-20T12:48:53.759Z,42.03
2018-02-20T12:51:21.943Z,32.77
2018-02-20T12:53:49.442Z,37.80
2018-02-20T12:56:16.885Z,42.47
2018-02-20T12:58:44.323Z,39.47
2018-02-20T13:01:12.512Z,35.10
2018-02-20T13:03:40.697Z,39.90
2018-02-20T13:06:08.914Z,42.80
2018-02-20T13:08:36.326Z,43.13
2018-02-20T13:11:03.746Z,44.13
2018-02-20T13:13:31.176Z,37.50
2018-02-20T13:15:59.433Z,41.50
2018-02-20T13:18:26.853Z,42.67
2018-02-20T13:20:54.339Z,42.00
2018-02-20T13:23:21.762Z,45.07
2018-02-20T13:25:49.185Z,46.50
2018-02-20T13:28:16.622Z,46.73
2018-02-20T13:30:44.852Z,47.03
2018-02-20T13:33:12.293Z,45.57
2018-02-20T13:35:39.878Z,45.67
2018-02-20T13:38:07.271Z,44.13
2018-02-20T13:40:34.706Z,44.73
2018-02-20T13:43:02.137Z,42.50
2018-02-20T13:45:29.637Z,43.30
2018-02-20T13:47:57.075Z,42.87
2018-02-20T13:50:25.169Z,41.53
2018-02-20T13:52:53.385Z,43.00
2018-02-20T13:55:20.814Z,43.00
2018-02-20T13:57:48.289Z,44.77
2018-02-20T14:00:15.814Z,41.57
2018-02-20T14:02:43.257Z,43.90
2018-02-20T14:05:10.674Z,45.00
2018-02-20T14:07:38.110Z,43.13
2018-02-20T14:10:05.524Z,41.67
2018-02-20T14:12:33.025Z,42.27
2018-02-20T14:15:00.506Z,43.97
2018-02-20T14:17:28.076Z,40.63
2018-02-20T14:19:56.242Z,42.77
2018-02-20T14:22:24.452Z,45.70
2018-02-20T14:24:51.869Z,46.77
2018-02-20T14:27:19.386Z,45.93
2018-02-20T14:29:46.823Z,44.77
2018-02-20T14:32:15.016Z,45.63
2018-02-20T14:34:43.194Z,43.10
2018-02-20T14:37:11.385Z,43.53
2018-02-20T14:39:39.631Z,43.27
2018-02-20T14:42:07.033Z,44.93
2018-02-20T14:44:35.258Z,36.10
2018-02-20T14:47:02.682Z,46.43
2018-02-20T14:49:30.095Z,46.37
2018-02-20T14:51:57.518Z,45.47
2018-02-20T14:54:24.929Z,43.90
2018-02-20T14:56:52.412Z,46.60
2018-02-20T14:59:19.879Z,48.73
2018-02-20T15:01:47.380Z,45.37
2018-02-20T15:04:14.808Z,44.60
2018-02-20T15:06:42.293Z,46.33
2018-02-20T15:09:09.721Z,44.60
2018-02-20T15:11:37.915Z,43.90
2018-02-20T15:14:05.353Z,41.50
2018-02-20T15:16:32.781Z,43.75
2018-02-20T15:19:00.237Z,36.77
2018-02-20T15:21:27.723Z,41.60
2018-02-20T15:23:55.178Z,37.60
2018-02-20T15:26:22.603Z,39.90
2018-02-20T15:28:50.125Z,43.37
2018-02-20T15:31:17.553Z,45.15
2018-02-20T15:33:45.761Z,44.50
2018-02-20T15:36:13.189Z,44.22
2018-02-20T15:38:40.638Z,43.50
2018-02-20T15:41:08.053Z,41.20
2018-02-20T15:43:35.474Z,42.50
2018-02-20T15:46:02.907Z,42.00
2018-02-20T15:48:30.373Z,41.45
2018-02-20T15:50:57.960Z,27.50
2018-02-20T15:53:25.406Z,39.13
2018-02-20T15:55:52.849Z,41.58
2018-02-20T15:58:20.272Z,40.70
2018-02-20T16:00:47.724Z,39.30
2018-02-20T16:03:15.929Z,41.97
2018-02-20T16:05:43.336Z,39.38
2018-02-20T16:08:10.791Z,42.13
2018-02-20T16:10:38.214Z,43.63
2018-02-20T16:13:05.612Z,44.55
2018-02-20T16:15:33.049Z,45.72
2018-02-20T16:18:00.471Z,42.65
2018-02-20T16:20:27.924Z,39.83
2018-02-20T16:22:55.337Z,42.25
2018-02-20T16:25:22.820Z,37.83
2018-02-20T16:27:50.982Z,42.42
2018-02-20T16:30:19.193Z,44.40
2018-02-20T16:32:46.689Z,46.72
2018-02-20T16:35:14.137Z,41.83
2018-02-20T16:37:41.590Z,41.63
2018-02-20T16:40:09.029Z,46.33
2018-02-20T16:42:36.464Z,38.38
2018-02-20T16:45:03.911Z,42.00
2018-02-20T16:47:31.316Z,39.92
2018-02-20T16:49:58.747Z,43.17
2018-02-20T16:52:26.225Z,45.53
2018-02-20T16:54:53.698Z,48.22
2018-02-20T16:57:21.146Z,47.67
2018-02-20T16:59:48.588Z,47.72
2018-02-20T17:02:16.775Z,50.22
2018-02-20T17:04:45.001Z,52.47
2018-02-20T17:07:12.399Z,52.15
2018-02-20T17:09:39.942Z,53.17
2018-02-20T17:12:07.374Z,45.97
2018-02-20T17:14:35.573Z,55.95
2018-02-20T17:17:02.990Z,55.05
2018-02-20T17:19:30.401Z,54.47
2018-02-20T17:21:57.841Z,58.83
2018-02-20T17:24:25.359Z,56.17
2018-02-20T17:26:52.837Z,55.55
2018-02-20T17:29:20.201Z,55.20
2018-02-20T17:31:47.630Z,54.35
2018-02-20T17:34:16.098Z,55.55
2018-02-20T17:36:43.525Z,56.30
2018-02-20T17:39:10.945Z,56.05
2018-02-20T17:41:39.151Z,58.33
2018-02-20T17:44:07.330Z,55.00
2018-02-20T17:46:35.511Z,56.88
2018-02-20T17:49:03.773Z,56.28
2018-02-20T17:51:31.169Z,60.67
2018-02-20T17:53:58.589Z,59.05
2018-02-20T17:56:26.014Z,58.63
2018-02-20T17:58:54.211Z,58.00
2018-02-20T18:01:21.682Z,58.15
2018-02-20T18:03:49.170Z,59.53
2018-02-20T18:06:16.586Z,59.15
2018-02-20T18:08:44.032Z,56.67
2018-02-20T18:11:11.461Z,57.92
2018-02-20T18:13:38.871Z,58.83
2018-02-20T18:16:06.282Z,60.90
2018-02-20T18:18:33.773Z,59.88
2018-02-20T18:21:01.244Z,57.75
2018-02-20T18:23:28.679Z,58.55
2018-02-20T18:25:56.998Z,57.45
2018-02-20T18:28:25.176Z,56.53
2018-02-20T18:30:53.371Z,56.05
2018-02-20T18:33:20.790Z,60.47
2018-02-20T18:35:48.218Z,57.33
2018-02-20T18:38:15.646Z,67.15
2018-02-20T18:40:43.890Z,58.92
2018-02-20T18:43:11.307Z,61.40
2018-02-20T18:45:39.586Z,57.78
2018-02-20T18:48:07.762Z,53.20
2018-02-20T18:50:35.270Z,57.65
2018-02-20T18:53:02.690Z,58.22
2018-02-20T18:55:30.132Z,59.13
2018-02-20T18:57:57.581Z,55.20
2018-02-20T19:00:25.766Z,58.60
2018-02-20T19:02:53.169Z,60.50
2018-02-20T19:05:20.699Z,53.13
2018-02-20T19:07:48.178Z,60.95
2018-02-20T19:10:15.638Z,57.50
2018-02-20T19:12:43.066Z,60.00
2018-02-20T19:15:10.489Z,57.60
2018-02-20T19:17:37.998Z,60.10
2018-02-20T19:20:05.421Z,51.37
2018-02-20T19:22:32.912Z,60.03
2018-02-20T19:25:00.336Z,63.38
2018-02-20T19:27:27.814Z,61.15
2018-02-20T19:29:55.248Z,57.85
2018-02-20T19:32:22.670Z,57.88
2018-02-20T19:34:50.111Z,59.03
2018-02-20T19:37:18.279Z,55.42
2018-02-20T19:39:45.703Z,60.65
2018-02-20T19:42:13.103Z,63.63
2018-02-20T19:44:40.531Z,64.35
2018-02-20T19:47:07.980Z,62.50
2018-02-20T19:49:36.135Z,64.05
2018-02-20T19:52:04.326Z,59.85
2018-02-20T19:54:32.511Z,60.47
2018-02-20T19:57:00.726Z,62.62
2018-02-20T19:59:28.202Z,58.87
2018-02-20T20:01:55.678Z,60.40
2018-02-20T20:04:23.135Z,62.45
2018-02-20T20:06:50.606Z,61.03
2018-02-20T20:09:18.049Z,60.70
2018-02-20T20:11:46.275Z,62.50
2018-02-20T20:14:13.683Z,60.95
2018-02-20T20:16:41.098Z,61.42
2018-02-20T20:19:08.510Z,63.75
2018-02-20T20:21:35.946Z,65.32
2018-02-20T20:24:03.410Z,63.33
2018-02-20T20:26:30.822Z,63.83
2018-02-20T20:28:58.248Z,65.25
2018-02-20T20:31:25.675Z,64.28
2018-02-20T20:33:53.869Z,64.72
2018-02-20T20:36:21.307Z,65.43
2018-02-20T20:38:48.727Z,65.50
2018-02-20T20:41:16.168Z,61.60
2018-02-20T20:43:43.575Z,64.93
2018-02-20T20:46:11.022Z,61.37
2018-02-20T20:48:39.200Z,62.40
2018-02-20T20:51:07.397Z,62.13
2018-02-20T20:53:34.820Z,63.72
2018-02-20T20:56:02.326Z,63.05
2018-02-20T20:58:29.753Z,61.53
2018-02-20T21:00:57.162Z,61.97
2018-02-20T21:03:24.574Z,62.58
2018-02-20T21:05:51.985Z,62.47
2018-02-20T21:08:20.169Z,62.42
2018-02-20T21:10:48.375Z,59.40
2018-02-20T21:13:15.793Z,62.72
2018-02-20T21:15:43.305Z,64.22
2018-02-20T21:18:10.748Z,61.72
2018-02-20T21:20:38.245Z,59.05
2018-02-20T21:23:05.713Z,62.75
2018-02-20T21:25:33.255Z,62.72
2018-02-20T21:28:00.779Z,62.25
2018-02-20T21:30:28.337Z,62.38
2018-02-20T21:32:56.565Z,59.65
2018-02-20T21:35:23.932Z,61.65
2018-02-20T21:37:52.871Z,60.45
2018-02-20T21:40:21.054Z,61.25
2018-02-20T21:42:49.262Z,56.10
2018-02-20T21:45:16.734Z,60.20
2018-02-20T21:47:44.956Z,59.10
2018-02-20T21:50:12.400Z,60.05
2018-02-20T21:52:39.960Z,56.45
2018-02-20T21:55:08.142Z,58.90
2018-02-20T21:57:35.569Z,56.67
2018-02-20T22:00:03.070Z,56.58
2018-02-20T22:02:30.503Z,56.37
2018-02-20T22:04:57.921Z,54.65
2018-02-20T22:07:25.338Z,55.60
2018-02-20T22:09:52.780Z,55.40
2018-02-20T22:12:20.174Z,54.10
2018-02-20T22:14:47.695Z,52.08
2018-02-20T22:17:15.867Z,53.22
2018-02-20T22:19:44.050Z,53.05
2018-02-20T22:22:11.634Z,52.88
2018-02-20T22:24:39.804Z,51.60
2018-02-20T22:27:07.978Z,50.42
2018-02-20T22:29:36.165Z,48.58
2018-02-20T22:32:04.378Z,48.80
2018-02-20T22:34:31.785Z,47.72
2018-02-20T22:36:59.210Z,45.00
2018-02-20T22:39:26.625Z,45.20
2018-02-20T22:41:54.042Z,44.80
2018-02-20T22:44:21.522Z,45.83
2018-02-20T22:46:48.981Z,46.05
2018-02-20T22:49:16.408Z,45.47
2018-02-20T22:51:43.833Z,42.28
2018-02-20T22:54:11.290Z,45.75
2018-02-20T22:56:39.455Z,47.05
2018-02-20T22:59:07.625Z,48.72
2018-02-20T23:01:35.039Z,47.33
2018-02-20T23:04:02.467Z,46.10
2018-02-20T23:06:30.649Z,44.83
2018-02-20T23:08:58.078Z,44.33
2018-02-20T23:11:37.363Z,44.78
2018-02-20T23:14:04.762Z,42.75
2018-02-20T23:16:32.170Z,43.30
2018-02-20T23:18:59.606Z,45.67
2018-02-20T23:21:27.063Z,44.90
2018-02-20T23:23:54.545Z,43.67
2018-02-20T23:26:22.029Z,41.90
2018-02-20T23:28:49.483Z,42.70
2018-02-20T23:31:17.795Z,43.55
2018-02-20T23:33:45.285Z,42.53
2018-02-20T23:36:12.702Z,43.95
2018-02-20T23:38:40.115Z,43.72
2018-02-20T23:41:07.540Z,40.85
2018-02-20T23:43:34.993Z,41.75
2018-02-20T23:46:03.167Z,43.90
2018-02-20T23:48:30.649Z,40.78
2018-02-20T23:51:03.814Z,41.72
2018-02-20T23:53:32.034Z,42.95
2018-02-20T23:55:59.550Z,40.67
2018-02-20T23:58:27.751Z,43.45
